Birome, Texas
Current Conditions -  °F | °C
As of 11:55 AM on Saturday 25 Oct 2014 (Local Time) from KCNW Reporting Station
Clear Clear  
Wind Chill: 81°   Ceiling: Unl
Heat Index: 81°   Visibility: 10mi
Dew Point: 61°   Wind: 8mph
Humidity: 51%   Direction: 190°S
Pressure: 30.17"   Gusts: NA
Location:  31.761°N, 96.9123°W
Report Text: KCNW 251655Z 19007KT 10SM SKC 27/16 A3017
Loading
Personal Weather Stations






























Interactive Weather Map
Tropical Storm Tracking
New forecast layout! Learn more

10-Day Weather Forecast

Advertisements
Track Severe Weather on mobile